Řízení letového provozu České republiky
Letiste: LKKB Aktualizace: 09.12.2016 11:08:13  UTC
 METAR LKKB 09.12. 11:00 ...
METAR LKKB 091100Z 23015KT 9999 FEW022 BKN040 BKN050 07/03 Q1027 NOSIG =
 TAF LKKB 09.12. 05:00 ...
TAF LKKB 090500Z 0906/1006 22010KT CAVOK      TEMPO 0906/0916 25016KT 9999 BKN040=